Time;durP1;ratioP1;P1;durP2;ratioP2;P2;SDS_P1;SDS_P2;PMS_P1;PMS_P2;Temp;Humidity;BMP_temperature;BMP_pressure;BME280_temperature;BME280_humidity;BME280_pressure;Samples;Min_cycle;Max_cycle;Signal;HPM_P1;HPM_P2
2021/09/05 00:01:45;;;;;;;4.15;0.70;;;28.20;60.70;;;;;;5048897;28;20051;-42
2021/09/05 00:04:12;;;;;;;1.55;0.68;;;28.20;60.10;;;;;;5048601;28;20044;-45
2021/09/05 00:06:39;;;;;;;1.55;0.88;;;28.20;59.70;;;;;;5050538;28;20109;-38
2021/09/05 00:09:06;;;;;;;1.52;1.30;;;28.10;60.00;;;;;;5049036;28;20107;-40
2021/09/05 00:11:34;;;;;;;13.68;2.00;;;28.00;59.40;;;;;;5050749;28;20236;-40
2021/09/05 00:14:03;;;;;;;2.58;0.85;;;27.90;59.40;;;;;;5049374;28;20052;-40
2021/09/05 00:16:31;;;;;;;5.00;2.03;;;27.80;59.60;;;;;;5047630;28;20162;-42
2021/09/05 00:18:58;;;;;;;1.35;1.25;;;27.80;59.60;;;;;;5047624;28;20053;-41
2021/09/05 00:21:25;;;;;;;5.03;1.27;;;27.70;59.50;;;;;;5049334;28;20420;-41
2021/09/05 00:23:52;;;;;;;3.53;1.30;;;27.60;59.70;;;;;;5049723;28;20624;-41
2021/09/05 00:26:19;;;;;;;4.03;1.45;;;27.50;59.70;;;;;;5047283;28;20044;-41
2021/09/05 00:28:48;;;;;;;6.40;1.67;;;27.40;59.80;;;;;;5048545;28;20057;-41
2021/09/05 00:31:17;;;;;;;2.60;0.70;;;27.40;60.10;;;;;;5047317;28;20046;-39
2021/09/05 00:33:44;;;;;;;1.92;0.90;;;27.30;60.10;;;;;;5049406;28;20029;-44
2021/09/05 00:36:11;;;;;;;1.13;1.05;;;27.30;60.20;;;;;;5048960;28;20037;-42
2021/09/05 00:38:39;;;;;;;2.72;0.98;;;27.20;60.20;;;;;;5046419;28;20539;-39
2021/09/05 00:41:06;;;;;;;1.75;0.73;;;27.10;60.20;;;;;;5047133;28;20527;-41
2021/09/05 00:43:48;;;;;;;2.17;0.85;;;27.10;60.30;;;;;;5043748;28;20045;-39
2021/09/05 00:46:17;;;;;;;1.75;0.40;;;27.00;60.40;;;;;;5054797;28;20082;-38
2021/09/05 00:48:44;;;;;;;0.95;0.50;;;26.90;60.60;;;;;;5043502;28;20044;-37
2021/09/05 00:51:11;;;;;;;1.20;0.65;;;26.90;61.00;;;;;;5044660;28;20146;-39
2021/09/05 00:53:38;;;;;;;1.05;0.47;;;26.90;61.10;;;;;;5052634;28;20570;-45
2021/09/05 00:56:06;;;;;;;2.28;0.50;;;26.80;61.10;;;;;;5050911;28;20041;-42
2021/09/05 00:58:36;;;;;;;1.20;0.38;;;26.80;61.20;;;;;;5044623;28;20076;-39
2021/09/05 01:01:03;;;;;;;4.10;0.52;;;26.70;61.30;;;;;;5040398;28;20041;-36
2021/09/05 01:03:32;;;;;;;1.20;1.10;;;26.80;61.50;;;;;;5037243;28;20484;-37
2021/09/05 01:06:10;;;;;;;2.78;0.43;;;26.70;61.40;;;;;;5045074;28;20134;-40
2021/09/05 01:08:37;;;;;;;2.15;0.45;;;26.70;61.50;;;;;;5047957;28;20138;-41
2021/09/05 01:11:08;;;;;;;2.58;0.70;;;26.60;61.70;;;;;;5045081;28;20136;-41
2021/09/05 01:13:35;;;;;;;0.50;0.47;;;26.70;62.00;;;;;;5047370;28;20130;-42
2021/09/05 01:16:03;;;;;;;1.45;0.40;;;26.60;62.20;;;;;;5046412;28;20045;-42
2021/09/05 01:18:39;;;;;;;0.93;0.93;;;26.60;62.30;;;;;;5045091;28;20069;-43
2021/09/05 01:21:25;;;;;;;2.17;0.52;;;26.50;62.40;;;;;;5047487;28;20102;-43
2021/09/05 01:24:11;;;;;;;2.25;0.85;;;26.60;62.60;;;;;;5046182;28;20709;-45
2021/09/05 01:27:03;;;;;;;3.42;0.70;;;26.50;62.50;;;;;;5004417;28;20133;-44
2021/09/05 01:29:54;;;;;;;1.75;1.50;;;26.50;62.60;;;;;;4988824;28;20138;-45
2021/09/05 01:32:47;;;;;;;1.13;0.93;;;26.50;62.60;;;;;;5001275;28;20046;-47
2021/09/05 01:35:44;;;;;;;3.15;1.02;;;26.40;62.60;;;;;;5003223;28;20049;-42
2021/09/05 01:38:34;;;;;;;1.25;1.25;;;26.40;62.60;;;;;;4995223;28;20084;-42
2021/09/05 01:41:30;;;;;;;2.67;1.05;;;26.40;62.80;;;;;;5002546;28;20046;-44
2021/09/05 01:44:19;;;;;;;2.72;0.90;;;26.40;62.90;;;;;;5002889;28;20053;-46
2021/09/05 01:46:55;;;;;;;3.80;1.08;;;26.40;62.90;;;;;;5003634;28;20053;-42
2021/09/05 01:49:41;;;;;;;1.58;0.90;;;26.40;62.90;;;;;;5002580;28;20649;-41
2021/09/05 01:52:26;;;;;;;1.58;1.48;;;26.40;63.00;;;;;;5004136;28;20743;-42
2021/09/05 01:55:22;;;;;;;1.43;0.83;;;26.40;63.00;;;;;;4990740;28;20042;-43
2021/09/05 01:58:07;;;;;;;1.42;1.33;;;26.30;63.10;;;;;;5005525;28;20359;-43
2021/09/05 02:01:00;;;;;;;2.67;1.48;;;26.40;63.10;;;;;;5005331;28;20079;-42
2021/09/05 02:03:48;;;;;;;3.67;1.08;;;26.30;63.10;;;;;;5031602;28;20045;-43
2021/09/05 02:06:30;;;;;;;1.50;1.15;;;26.30;63.10;;;;;;5039806;28;20045;-44
2021/09/05 02:09:17;;;;;;;1.58;1.45;;;26.30;63.10;;;;;;5033461;28;20677;-41
2021/09/05 02:12:16;;;;;;;1.50;1.38;;;26.30;63.10;;;;;;4984989;28;20122;-44
2021/09/05 02:14:52;;;;;;;5.75;1.67;;;26.30;63.10;;;;;;4985595;28;20637;-40
2021/09/05 02:17:43;;;;;;;1.85;1.70;;;26.30;63.10;;;;;;4938151;29;20040;-42
2021/09/05 02:20:24;;;;;;;1.30;1.25;;;26.30;63.10;;;;;;4941450;29;20553;-42
2021/09/05 02:23:10;;;;;;;4.25;1.73;;;26.30;63.70;;;;;;4945632;28;20062;-44
2021/09/05 02:25:55;;;;;;;0.75;0.60;;;26.30;63.20;;;;;;4931126;28;20047;-42
2021/09/05 02:28:41;;;;;;;1.52;0.82;;;26.30;63.20;;;;;;4956591;28;20175;-41
2021/09/05 02:31:27;;;;;;;3.15;1.10;;;26.30;63.10;;;;;;4918789;29;20036;-43
2021/09/05 02:34:14;;;;;;;2.10;1.05;;;26.40;63.10;;;;;;4932609;29;20059;-41
2021/09/05 02:37:10;;;;;;;4.55;1.00;;;26.40;62.90;;;;;;4930658;29;20542;-41
2021/09/05 02:39:52;;;;;;;0.70;0.60;;;26.60;62.90;;;;;;4931363;29;20532;-41
2021/09/05 02:42:45;;;;;;;0.90;0.88;;;26.60;62.80;;;;;;4908829;29;20063;-42
2021/09/05 02:45:15;;;;;;;0.85;0.65;;;26.70;62.70;;;;;;4909692;29;20063;-41
2021/09/05 02:48:10;;;;;;;1.88;0.70;;;26.70;62.50;;;;;;4930878;29;20066;-45
2021/09/05 02:50:57;;;;;;;1.15;0.98;;;26.70;62.50;;;;;;4946014;29;20555;-43
2021/09/05 02:53:59;;;;;;;0.85;0.85;;;26.80;62.40;;;;;;4956302;28;20070;-45
2021/09/05 02:57:01;;;;;;;2.58;0.75;;;26.80;62.30;;;;;;5024501;28;20131;-43
2021/09/05 02:59:47;;;;;;;1.80;0.70;;;26.80;62.30;;;;;;5023859;28;20049;-42
2021/09/05 03:02:34;;;;;;;1.08;0.95;;;26.90;62.30;;;;;;5023175;28;20387;-44
2021/09/05 03:05:18;;;;;;;1.88;0.40;;;26.90;62.30;;;;;;5006949;28;20044;-45
2021/09/05 03:08:16;;;;;;;3.45;1.13;;;26.90;62.20;;;;;;4989387;28;20053;-43
2021/09/05 03:10:57;;;;;;;0.93;0.93;;;27.00;62.30;;;;;;5007382;28;20044;-43
2021/09/05 03:13:45;;;;;;;0.95;0.90;;;27.00;62.20;;;;;;5023410;28;20057;-41
2021/09/05 03:16:31;;;;;;;2.65;0.70;;;27.00;62.10;;;;;;5023828;28;20041;-41
2021/09/05 03:19:17;;;;;;;1.33;0.60;;;27.10;62.20;;;;;;5015376;28;20056;-42
2021/09/05 03:22:19;;;;;;;2.47;1.00;;;27.10;62.10;;;;;;5029446;28;20053;-41
2021/09/05 03:25:00;;;;;;;0.50;0.50;;;27.10;62.10;;;;;;5044144;28;20048;-41
2021/09/05 03:27:59;;;;;;;3.22;0.38;;;27.10;62.00;;;;;;4983858;28;20463;-41
2021/09/05 03:30:45;;;;;;;2.43;0.50;;;27.10;62.00;;;;;;4984904;28;20457;-44
2021/09/05 03:33:38;;;;;;;0.68;0.65;;;27.10;61.90;;;;;;4984881;28;20396;-45
2021/09/05 03:36:27;;;;;;;4.57;0.60;;;27.20;61.90;;;;;;4971040;28;20137;-40
2021/09/05 03:39:17;;;;;;;1.90;0.80;;;27.20;61.90;;;;;;4969500;28;20114;-41
2021/09/05 03:42:18;;;;;;;0.65;0.30;;;27.20;61.90;;;;;;4972726;28;20108;-46
2021/09/05 03:45:12;;;;;;;0.60;0.43;;;27.20;61.90;;;;;;4958556;28;20049;-44
2021/09/05 03:47:59;;;;;;;1.60;0.20;;;27.20;61.90;;;;;;4972540;28;20043;-44
2021/09/05 03:50:47;;;;;;;2.45;1.00;;;27.30;61.90;;;;;;4961825;28;20054;-41
2021/09/05 03:53:14;;;;;;;2.38;0.60;;;27.30;61.90;;;;;;4967987;28;20629;-42
2021/09/05 03:55:43;;;;;;;2.15;0.50;;;27.30;61.80;;;;;;4968111;28;20459;-43
2021/09/05 03:58:13;;;;;;;1.02;0.68;;;27.30;61.80;;;;;;4953522;28;20049;-44
2021/09/05 04:00:41;;;;;;;3.92;1.88;;;27.30;61.80;;;;;;4968942;28;20058;-45
2021/09/05 04:03:11;;;;;;;0.50;0.32;;;27.30;61.70;;;;;;4989156;28;20519;-41
2021/09/05 04:05:38;;;;;;;0.47;0.47;;;27.40;61.70;;;;;;5033398;28;20049;-44
2021/09/05 04:08:16;;;;;;;1.50;0.70;;;27.40;61.70;;;;;;5029774;28;20092;-41
2021/09/05 04:10:43;;;;;;;1.70;1.08;;;27.40;61.70;;;;;;5030589;28;20565;-42
2021/09/05 04:13:14;;;;;;;0.80;0.52;;;27.40;61.60;;;;;;5029879;28;20041;-43
2021/09/05 04:15:41;;;;;;;0.68;0.52;;;27.40;61.60;;;;;;5026784;28;20144;-47
2021/09/05 04:18:09;;;;;;;1.48;0.73;;;27.40;61.70;;;;;;5032237;28;20084;-41
2021/09/05 04:20:36;;;;;;;0.40;0.40;;;27.40;61.60;;;;;;5033302;28;20045;-44
2021/09/05 04:23:03;;;;;;;1.42;0.60;;;27.40;61.60;;;;;;5035310;28;20041;-45
2021/09/05 04:25:30;;;;;;;0.77;0.40;;;27.40;61.60;;;;;;5042149;28;20065;-44
2021/09/05 04:27:57;;;;;;;1.42;0.90;;;27.40;61.60;;;;;;5041791;28;20053;-45
2021/09/05 04:30:25;;;;;;;5.18;1.30;;;27.50;61.60;;;;;;5031347;28;20096;-43
2021/09/05 04:32:52;;;;;;;1.95;1.05;;;27.50;61.60;;;;;;5027778;28;20144;-43
2021/09/05 04:35:19;;;;;;;0.93;0.80;;;27.40;61.50;;;;;;5029312;28;20042;-48
2021/09/05 04:37:47;;;;;;;0.65;0.65;;;27.50;61.60;;;;;;5029545;28;20490;-48
2021/09/05 04:40:14;;;;;;;1.48;0.60;;;27.50;61.60;;;;;;5030723;28;20040;-49
2021/09/05 04:42:41;;;;;;;1.58;1.27;;;27.50;61.70;;;;;;5045579;28;20080;-44
2021/09/05 04:45:09;;;;;;;2.85;0.77;;;27.50;61.70;;;;;;5042488;28;20509;-45
2021/09/05 04:47:38;;;;;;;1.20;1.05;;;27.50;61.70;;;;;;5035902;28;20148;-47
2021/09/05 04:50:06;;;;;;;2.05;0.88;;;27.50;61.70;;;;;;5033119;28;20056;-42
2021/09/05 04:52:34;;;;;;;1.42;1.33;;;27.50;61.70;;;;;;5042907;28;20132;-44
2021/09/05 04:55:01;;;;;;;1.52;1.42;;;27.50;61.70;;;;;;5046818;28;20128;-47
2021/09/05 04:57:28;;;;;;;2.50;1.20;;;27.50;61.70;;;;;;5050134;28;20041;-42
2021/09/05 04:59:55;;;;;;;3.53;1.88;;;27.50;61.80;;;;;;5045096;28;20041;-43
2021/09/05 05:02:22;;;;;;;2.60;2.40;;;27.50;61.80;;;;;;5037721;28;20045;-47
2021/09/05 05:04:50;;;;;;;3.90;2.47;;;27.50;61.80;;;;;;5047173;28;20454;-48
2021/09/05 05:07:17;;;;;;;2.75;2.55;;;27.50;61.70;;;;;;5046639;28;20060;-47
2021/09/05 05:09:45;;;;;;;3.13;2.92;;;27.50;61.70;;;;;;5030077;28;20073;-47
2021/09/05 05:12:12;;;;;;;3.05;2.60;;;27.50;61.70;;;;;;5049782;28;20049;-46
2021/09/05 05:14:39;;;;;;;6.53;2.40;;;27.50;61.60;;;;;;5034999;28;20501;-47
2021/09/05 05:17:06;;;;;;;2.67;2.47;;;27.60;61.70;;;;;;5039101;28;20048;-45
2021/09/05 05:19:34;;;;;;;4.25;2.80;;;27.50;61.60;;;;;;5031852;28;20037;-47
2021/09/05 05:22:02;;;;;;;4.60;1.77;;;27.60;61.60;;;;;;5044151;28;20624;-43
2021/09/05 05:24:29;;;;;;;3.28;2.50;;;27.60;61.60;;;;;;5030111;28;20095;-45
2021/09/05 05:26:57;;;;;;;3.17;2.28;;;27.50;61.60;;;;;;5047398;28;20549;-45
2021/09/05 05:29:24;;;;;;;2.60;2.15;;;27.60;62.20;;;;;;5042589;28;20040;-47
2021/09/05 05:31:52;;;;;;;2.15;1.80;;;27.50;61.50;;;;;;5044322;28;20489;-47
2021/09/05 05:34:20;;;;;;;5.85;2.63;;;27.60;61.60;;;;;;5044164;28;20421;-41
2021/09/05 05:36:47;;;;;;;5.90;3.35;;;27.60;61.70;;;;;;5043687;28;20631;-40
2021/09/05 05:39:16;;;;;;;2.30;2.15;;;27.60;61.60;;;;;;5048357;28;20421;-46
2021/09/05 05:41:43;;;;;;;6.25;2.30;;;27.60;61.70;;;;;;5042252;28;20467;-44
2021/09/05 05:44:10;;;;;;;4.55;2.30;;;27.60;61.70;;;;;;5044901;28;20033;-43
2021/09/05 05:46:37;;;;;;;2.92;2.22;;;27.60;61.70;;;;;;5047170;28;20564;-44
2021/09/05 05:49:04;;;;;;;3.13;2.83;;;27.60;61.70;;;;;;5045190;28;20083;-47
2021/09/05 05:51:31;;;;;;;3.92;2.13;;;27.60;61.70;;;;;;5045284;28;20575;-47
2021/09/05 05:53:58;;;;;;;3.33;2.60;;;27.60;61.70;;;;;;5033265;28;20061;-45
2021/09/05 05:56:27;;;;;;;3.03;2.83;;;27.60;61.70;;;;;;5037289;28;20055;-42
2021/09/05 05:58:54;;;;;;;3.22;2.20;;;27.70;61.80;;;;;;5040625;28;20026;-40
2021/09/05 06:01:23;;;;;;;5.28;2.28;;;27.70;61.80;;;;;;5031810;28;20102;-45
2021/09/05 06:03:56;;;;;;;7.13;3.80;;;27.70;61.60;;;;;;5044378;28;20145;-46
2021/09/05 06:06:23;;;;;;;6.97;4.43;;;27.80;61.40;;;;;;5030285;28;20240;-40
2021/09/05 06:08:50;;;;;;;5.25;4.47;;;27.80;61.20;;;;;;5038427;28;20049;-41
2021/09/05 06:11:17;;;;;;;3.97;3.42;;;27.80;60.90;;;;;;5041266;28;20052;-43
2021/09/05 06:13:46;;;;;;;4.88;4.43;;;27.80;60.90;;;;;;5040873;28;20501;-45
2021/09/05 06:16:13;;;;;;;4.05;3.72;;;27.80;60.80;;;;;;5039160;28;20033;-44
2021/09/05 06:18:40;;;;;;;5.20;4.70;;;27.80;60.60;;;;;;5043595;28;20052;-42
2021/09/05 06:21:07;;;;;;;4.63;4.00;;;27.80;60.60;;;;;;5046627;28;20040;-42
2021/09/05 06:23:34;;;;;;;3.28;3.05;;;27.80;60.50;;;;;;5047966;28;20032;-43
2021/09/05 06:26:01;;;;;;;6.22;3.95;;;27.80;60.40;;;;;;5048845;28;20525;-41
2021/09/05 06:28:28;;;;;;;3.05;2.85;;;27.80;60.20;;;;;;5043878;28;20612;-39
2021/09/05 06:30:56;;;;;;;6.57;3.53;;;27.80;60.10;;;;;;5044360;28;20495;-39
2021/09/05 06:33:23;;;;;;;5.65;3.75;;;27.80;60.20;;;;;;5047313;28;20045;-42
2021/09/05 06:35:51;;;;;;;2.45;2.08;;;27.80;60.70;;;;;;5034562;28;20896;-42
2021/09/05 06:38:18;;;;;;;5.63;3.63;;;27.80;60.80;;;;;;5036178;28;20456;-40
2021/09/05 06:40:45;;;;;;;4.85;3.03;;;27.80;61.50;;;;;;5031611;28;20049;-41
2021/09/05 06:43:12;;;;;;;4.78;2.45;;;27.80;62.00;;;;;;5030484;28;20040;-41
2021/09/05 06:45:39;;;;;;;8.60;2.92;;;27.80;62.30;;;;;;5027522;28;20041;-39
2021/09/05 06:48:07;;;;;;;2.70;2.40;;;27.70;62.40;;;;;;5032267;28;20046;-39
2021/09/05 06:50:35;;;;;;;4.93;2.92;;;27.80;62.50;;;;;;5033965;28;20049;-44
2021/09/05 06:53:02;;;;;;;5.68;2.88;;;27.80;62.50;;;;;;5030585;28;20045;-39
2021/09/05 06:55:29;;;;;;;2.92;2.03;;;27.70;62.40;;;;;;5030668;28;20510;-38
2021/09/05 06:57:56;;;;;;;2.78;1.70;;;27.70;62.30;;;;;;5043887;28;20037;-42
2021/09/05 07:00:23;;;;;;;3.20;1.90;;;27.80;62.30;;;;;;5029377;28;20124;-44
2021/09/05 07:02:50;;;;;;;1.92;1.52;;;27.80;62.20;;;;;;5030769;28;20045;-41
2021/09/05 07:05:19;;;;;;;3.33;1.42;;;27.80;62.10;;;;;;5030540;28;20037;-43
2021/09/05 07:07:46;;;;;;;5.25;1.58;;;27.80;62.00;;;;;;5030266;28;20081;-39
2021/09/05 07:10:13;;;;;;;1.98;1.73;;;27.80;61.90;;;;;;5030750;28;20056;-39
2021/09/05 07:12:41;;;;;;;2.20;1.80;;;27.80;61.80;;;;;;5027396;28;20052;-38
2021/09/05 07:15:09;;;;;;;3.58;2.85;;;27.80;61.80;;;;;;5030626;28;20090;-46
2021/09/05 07:17:36;;;;;;;2.78;2.03;;;27.80;61.70;;;;;;5030555;28;20049;-40
2021/09/05 07:20:04;;;;;;;1.98;1.88;;;27.80;61.60;;;;;;5029387;28;20079;-41
2021/09/05 07:22:33;;;;;;;2.63;2.42;;;27.80;61.50;;;;;;5030628;28;20037;-44
2021/09/05 07:25:02;;;;;;;1.85;1.65;;;27.80;61.40;;;;;;5029383;28;20578;-41
2021/09/05 07:27:29;;;;;;;1.83;1.55;;;27.80;61.40;;;;;;5042681;28;20045;-40
2021/09/05 07:29:56;;;;;;;3.42;2.03;;;27.80;61.30;;;;;;5031791;28;20528;-43
2021/09/05 07:32:23;;;;;;;1.73;1.63;;;27.80;61.20;;;;;;5030194;28;20037;-42
2021/09/05 07:34:50;;;;;;;3.45;1.98;;;27.80;61.10;;;;;;5030665;28;20095;-42
2021/09/05 07:37:17;;;;;;;2.28;2.08;;;27.80;61.00;;;;;;5030420;28;20041;-40
2021/09/05 07:39:46;;;;;;;4.22;2.58;;;27.90;61.00;;;;;;5027037;28;20052;-39
2021/09/05 07:42:13;;;;;;;2.47;2.10;;;27.90;60.90;;;;;;5030337;28;20038;-38
2021/09/05 07:44:40;;;;;;;2.22;1.23;;;27.90;60.90;;;;;;5030181;28;20132;-39
2021/09/05 07:47:07;;;;;;;3.97;2.30;;;27.90;60.70;;;;;;5029983;28;20045;-40
2021/09/05 07:49:34;;;;;;;2.95;2.30;;;27.90;60.60;;;;;;5030396;28;20532;-42
2021/09/05 07:52:02;;;;;;;4.40;1.73;;;27.90;60.50;;;;;;5029639;28;20098;-40
2021/09/05 07:54:29;;;;;;;2.88;1.83;;;27.90;60.40;;;;;;5027867;28;20050;-42
2021/09/05 07:56:57;;;;;;;2.80;2.60;;;28.00;60.30;;;;;;5039802;28;20049;-43
2021/09/05 07:59:24;;;;;;;2.17;1.77;;;28.00;60.20;;;;;;5035418;28;20516;-41
2021/09/05 08:01:51;;;;;;;3.72;1.80;;;28.00;60.10;;;;;;5029943;28;20041;-41
2021/09/05 08:04:18;;;;;;;3.10;2.13;;;28.00;60.00;;;;;;5029334;28;20785;-38
2021/09/05 08:06:45;;;;;;;2.80;1.77;;;28.00;59.80;;;;;;5034915;28;20046;-39
2021/09/05 08:09:13;;;;;;;2.60;2.20;;;28.00;59.70;;;;;;5031726;28;20045;-40
2021/09/05 08:11:39;;;;;;;1.73;1.63;;;28.00;59.60;;;;;;5041745;28;20071;-41
2021/09/05 08:14:08;;;;;;;2.88;2.20;;;28.10;59.60;;;;;;5050416;28;20091;-41
2021/09/05 08:16:37;;;;;;;2.80;1.80;;;28.10;59.40;;;;;;5054030;28;20091;-40
2021/09/05 08:19:04;;;;;;;3.47;1.52;;;28.10;59.30;;;;;;5029944;28;20828;-38
2021/09/05 08:21:32;;;;;;;2.35;1.75;;;28.10;59.20;;;;;;5029965;28;20456;-39
2021/09/05 08:23:59;;;;;;;1.58;1.45;;;28.10;59.10;;;;;;5042195;28;20055;-38
2021/09/05 08:26:26;;;;;;;1.88;1.77;;;28.10;58.90;;;;;;5044137;28;20041;-39
2021/09/05 08:28:53;;;;;;;1.15;1.02;;;28.20;58.90;;;;;;5042676;28;20132;-40
2021/09/05 08:31:22;;;;;;;1.48;1.27;;;28.10;58.70;;;;;;5033741;28;20132;-38
2021/09/05 08:33:49;;;;;;;1.58;1.48;;;28.20;58.70;;;;;;5031627;28;20125;-38
2021/09/05 08:36:16;;;;;;;7.25;1.55;;;28.20;58.60;;;;;;5031974;28;20117;-38
2021/09/05 08:38:43;;;;;;;2.35;1.80;;;28.20;58.50;;;;;;5033570;28;20163;-40
2021/09/05 08:41:10;;;;;;;1.73;1.55;;;28.20;58.40;;;;;;5033810;28;20135;-38
2021/09/05 08:43:38;;;;;;;0.95;0.90;;;28.20;58.30;;;;;;5033631;28;20050;-39
2021/09/05 08:46:06;;;;;;;3.25;1.35;;;28.20;58.20;;;;;;5028650;28;20042;-40
2021/09/05 08:48:36;;;;;;;2.03;1.05;;;28.30;58.20;;;;;;5046779;28;20040;-41
2021/09/05 08:51:03;;;;;;;1.40;1.30;;;28.30;58.00;;;;;;5034246;28;20091;-41
2021/09/05 08:53:30;;;;;;;2.03;1.10;;;28.30;58.00;;;;;;5033368;28;20452;-39
2021/09/05 08:55:57;;;;;;;2.30;0.95;;;28.30;57.90;;;;;;5034985;28;20052;-39
2021/09/05 08:58:24;;;;;;;2.00;1.02;;;28.30;57.80;;;;;;5045777;28;20401;-42
2021/09/05 09:00:51;;;;;;;2.47;1.08;;;28.30;57.70;;;;;;5031454;28;20053;-39
2021/09/05 09:03:20;;;;;;;2.92;1.10;;;28.30;57.70;;;;;;5030959;28;20037;-40
2021/09/05 09:05:51;;;;;;;1.55;1.45;;;28.30;57.60;;;;;;5029767;28;20072;-38
2021/09/05 09:08:18;;;;;;;1.80;0.88;;;28.30;57.50;;;;;;5038933;28;20045;-44
2021/09/05 09:10:50;;;;;;;1.10;0.75;;;28.40;57.50;;;;;;5033122;28;20041;-40
2021/09/05 09:13:26;;;;;;;1.17;1.10;;;28.30;57.40;;;;;;5033128;28;20487;-41
2021/09/05 09:15:53;;;;;;;2.20;1.35;;;28.40;57.30;;;;;;5031011;28;20037;-44
2021/09/05 09:18:25;;;;;;;3.80;1.23;;;28.30;57.20;;;;;;5032315;28;20045;-44
2021/09/05 09:20:55;;;;;;;2.47;1.35;;;28.40;57.20;;;;;;5032553;28;20076;-39
2021/09/05 09:23:24;;;;;;;1.02;1.02;;;28.40;57.10;;;;;;5033068;28;20052;-43
2021/09/05 09:26:00;;;;;;;1.08;0.93;;;28.40;57.10;;;;;;5034253;28;20045;-39
2021/09/05 09:28:32;;;;;;;2.10;2.00;;;28.40;57.00;;;;;;5045809;28;20485;-39
2021/09/05 09:31:01;;;;;;;2.35;0.95;;;28.40;56.90;;;;;;5031491;28;26730;-39
2021/09/05 09:33:30;;;;;;;3.45;0.60;;;28.40;56.90;;;;;;5030554;28;20053;-42
2021/09/05 09:36:00;;;;;;;1.60;1.50;;;28.40;56.80;;;;;;5033192;28;20081;-41
2021/09/05 09:38:28;;;;;;;1.88;1.73;;;28.40;56.80;;;;;;5031858;28;20702;-41
2021/09/05 09:41:10;;;;;;;1.40;1.20;;;28.40;56.70;;;;;;5032243;28;20045;-39
2021/09/05 09:43:52;;;;;;;1.38;0.85;;;28.50;56.70;;;;;;5032253;28;20084;-38
2021/09/05 09:46:21;;;;;;;3.13;1.20;;;28.50;56.60;;;;;;5028762;28;20038;-39
2021/09/05 09:48:50;;;;;;;3.53;1.27;;;28.50;56.70;;;;;;5028532;28;20714;-42
2021/09/05 09:51:18;;;;;;;3.75;1.50;;;28.50;56.60;;;;;;5029457;28;20088;-41
2021/09/05 09:53:47;;;;;;;3.38;1.23;;;28.50;56.50;;;;;;5032250;28;20041;-41
2021/09/05 09:56:16;;;;;;;3.13;1.33;;;28.50;56.50;;;;;;5036189;28;20130;-38
2021/09/05 09:58:44;;;;;;;1.90;1.20;;;28.50;56.40;;;;;;5045931;28;20045;-38
2021/09/05 10:01:14;;;;;;;3.28;0.95;;;28.60;56.40;;;;;;5031893;28;20123;-42
2021/09/05 10:03:44;;;;;;;1.48;1.05;;;28.50;56.30;;;;;;5028519;28;20049;-42
2021/09/05 10:06:12;;;;;;;1.27;1.15;;;28.50;56.20;;;;;;5029701;28;20052;-43
2021/09/05 10:08:43;;;;;;;1.08;0.70;;;28.60;56.20;;;;;;5031726;28;20122;-40
2021/09/05 10:11:12;;;;;;;4.03;1.27;;;28.60;56.20;;;;;;5031780;28;20038;-38
2021/09/05 10:13:40;;;;;;;1.25;0.98;;;28.60;56.10;;;;;;5031549;28;20584;-38
2021/09/05 10:16:08;;;;;;;0.90;0.88;;;28.60;56.10;;;;;;5031898;28;20041;-41
2021/09/05 10:18:39;;;;;;;1.40;0.90;;;28.60;56.00;;;;;;5029752;28;20124;-41
2021/09/05 10:21:06;;;;;;;1.08;0.98;;;28.60;56.00;;;;;;5032724;28;20052;-41
2021/09/05 10:23:35;;;;;;;1.08;1.08;;;28.60;56.00;;;;;;5039823;28;20040;-46
2021/09/05 10:26:08;;;;;;;1.20;0.90;;;28.60;55.90;;;;;;5041618;28;20072;-41
2021/09/05 10:28:38;;;;;;;1.63;1.50;;;28.70;55.90;;;;;;5043262;28;20147;-40
2021/09/05 10:31:06;;;;;;;1.85;0.93;;;28.60;55.80;;;;;;5027858;28;20057;-42
2021/09/05 10:33:35;;;;;;;1.65;1.35;;;28.70;55.90;;;;;;5044601;28;20064;-41
2021/09/05 10:36:07;;;;;;;1.30;1.20;;;28.70;55.70;;;;;;5027988;28;20089;-38
2021/09/05 10:38:35;;;;;;;0.93;0.93;;;28.70;55.60;;;;;;5029260;28;20045;-42
2021/09/05 10:41:09;;;;;;;2.63;1.30;;;28.70;55.60;;;;;;5031467;28;20033;-40
2021/09/05 10:43:56;;;;;;;1.50;0.80;;;28.70;55.50;;;;;;5027457;28;20049;-41
2021/09/05 10:46:24;;;;;;;1.88;1.73;;;28.80;55.40;;;;;;5031061;28;20127;-42
2021/09/05 10:48:53;;;;;;;1.40;0.80;;;28.70;55.40;;;;;;5028837;28;20087;-41
2021/09/05 10:51:24;;;;;;;1.35;1.02;;;28.80;55.30;;;;;;5030073;28;20056;-40
2021/09/05 10:53:53;;;;;;;3.15;1.17;;;28.80;55.20;;;;;;5031237;28;20056;-40
2021/09/05 10:56:23;;;;;;;1.30;1.30;;;28.80;55.10;;;;;;5035734;28;20044;-41
2021/09/05 10:58:54;;;;;;;1.02;0.65;;;28.80;55.10;;;;;;5040549;28;20529;-45
2021/09/05 11:01:27;;;;;;;1.30;1.20;;;28.80;54.90;;;;;;5030946;28;20548;-40
2021/09/05 11:04:24;;;;;;;2.20;0.77;;;28.80;54.90;;;;;;5029164;28;20394;-41
2021/09/05 11:06:53;;;;;;;1.08;0.88;;;28.90;54.90;;;;;;5044837;28;20037;-38
2021/09/05 11:09:40;;;;;;;0.75;0.70;;;28.90;54.80;;;;;;5030029;28;20121;-38
2021/09/05 11:12:12;;;;;;;1.00;1.00;;;28.90;54.70;;;;;;5031541;28;20600;-38
2021/09/05 11:14:59;;;;;;;1.42;1.05;;;28.90;54.70;;;;;;5030553;28;20048;-38
2021/09/05 11:17:28;;;;;;;1.27;0.70;;;29.00;54.70;;;;;;5030530;28;20124;-41
2021/09/05 11:19:57;;;;;;;1.30;1.05;;;28.90;54.70;;;;;;5031094;28;20041;-38
2021/09/05 11:22:30;;;;;;;0.98;0.93;;;29.00;54.70;;;;;;5030953;28;20102;-39
2021/09/05 11:25:24;;;;;;;0.90;0.75;;;29.00;54.60;;;;;;5043761;28;20057;-38
2021/09/05 11:28:01;;;;;;;1.52;1.05;;;29.00;54.50;;;;;;5043592;28;20496;-38
2021/09/05 11:30:32;;;;;;;0.63;0.63;;;29.00;54.50;;;;;;5028444;28;20045;-40
2021/09/05 11:33:02;;;;;;;0.75;0.75;;;29.00;54.40;;;;;;5029993;28;20038;-42
2021/09/05 11:35:39;;;;;;;1.05;1.05;;;29.00;54.40;;;;;;5030462;28;20041;-44
2021/09/05 11:38:07;;;;;;;2.30;0.80;;;29.10;54.30;;;;;;5030198;28;20050;-39
2021/09/05 11:40:46;;;;;;;0.50;0.50;;;29.10;54.30;;;;;;5030326;28;20061;-39
2021/09/05 11:43:28;;;;;;;0.93;0.43;;;29.10;54.20;;;;;;5038201;28;20083;-38
2021/09/05 11:45:57;;;;;;;1.27;0.68;;;29.10;54.20;;;;;;5028533;28;20042;-38
2021/09/05 11:48:27;;;;;;;0.60;0.55;;;29.10;54.20;;;;;;5028898;28;20045;-37
2021/09/05 11:51:02;;;;;;;1.30;0.77;;;29.10;54.20;;;;;;5037179;28;20073;-40
2021/09/05 11:53:29;;;;;;;1.00;0.43;;;29.10;54.20;;;;;;5030472;28;20498;-38
2021/09/05 11:55:57;;;;;;;0.63;0.52;;;29.10;54.20;;;;;;5034781;28;20549;-41
2021/09/05 11:58:25;;;;;;;0.90;0.90;;;29.10;54.20;;;;;;5048245;28;20449;-42
2021/09/05 12:00:57;;;;;;;0.60;0.60;;;29.10;54.20;;;;;;5031950;28;20033;-37
2021/09/05 12:03:26;;;;;;;1.13;0.75;;;29.20;54.20;;;;;;5032974;28;20132;-40
2021/09/05 12:05:55;;;;;;;0.65;0.50;;;29.20;54.30;;;;;;5035310;28;20049;-43
2021/09/05 12:08:26;;;;;;;0.75;0.70;;;29.20;54.20;;;;;;5033901;28;20041;-39
2021/09/05 12:11:05;;;;;;;1.85;0.77;;;29.20;54.20;;;;;;5035292;28;20043;-37
2021/09/05 12:13:55;;;;;;;0.60;0.60;;;29.30;54.20;;;;;;5034296;28;20044;-38
2021/09/05 12:16:24;;;;;;;1.25;1.15;;;29.30;54.20;;;;;;5032449;28;20520;-37
2021/09/05 12:19:04;;;;;;;0.60;0.60;;;29.30;54.20;;;;;;5032089;28;20049;-37
2021/09/05 12:21:33;;;;;;;2.25;0.80;;;29.20;54.70;;;;;;5031702;28;20208;-37
2021/09/05 12:24:01;;;;;;;1.08;0.82;;;29.20;54.10;;;;;;5034663;28;20371;-40
2021/09/05 12:26:28;;;;;;;1.67;1.30;;;29.30;54.00;;;;;;5045520;28;20162;-41
2021/09/05 12:29:00;;;;;;;1.30;1.02;;;29.30;54.00;;;;;;5042599;28;20055;-37
2021/09/05 12:31:40;;;;;;;1.52;1.10;;;29.30;54.00;;;;;;5032054;28;20045;-45
2021/09/05 12:34:09;;;;;;;1.92;1.50;;;29.40;54.00;;;;;;5033922;28;20065;-42
2021/09/05 12:36:38;;;;;;;1.27;1.25;;;29.30;53.90;;;;;;5030350;28;20045;-44
2021/09/05 12:39:05;;;;;;;1.35;1.25;;;29.30;53.90;;;;;;5034182;28;20543;-43
2021/09/05 12:41:33;;;;;;;2.50;1.50;;;29.40;53.90;;;;;;5033805;28;20096;-39
2021/09/05 12:44:07;;;;;;;2.03;1.92;;;29.40;53.90;;;;;;5033100;28;20639;-39
2021/09/05 12:46:39;;;;;;;1.77;1.17;;;29.40;53.80;;;;;;5033561;28;20033;-40
2021/09/05 12:49:13;;;;;;;1.40;1.27;;;29.40;53.90;;;;;;5033555;28;20496;-38
2021/09/05 12:51:51;;;;;;;1.15;1.05;;;29.40;53.80;;;;;;5030169;28;20056;-41
2021/09/05 12:54:19;;;;;;;3.05;0.80;;;29.40;53.70;;;;;;5035416;28;20053;-40
2021/09/05 12:56:47;;;;;;;1.90;1.20;;;29.40;53.70;;;;;;5041961;28;20116;-45
2021/09/05 12:59:15;;;;;;;2.17;1.02;;;29.40;53.60;;;;;;5039302;28;20046;-40
2021/09/05 13:01:44;;;;;;;1.00;0.98;;;29.40;53.50;;;;;;5033389;28;20052;-42
2021/09/05 13:04:11;;;;;;;1.00;0.75;;;29.40;53.50;;;;;;5029945;28;20045;-37
2021/09/05 13:06:39;;;;;;;0.93;0.93;;;29.50;53.50;;;;;;5032686;28;20034;-40
2021/09/05 13:09:08;;;;;;;0.68;0.65;;;29.50;53.60;;;;;;5034428;28;20050;-40
2021/09/05 13:11:35;;;;;;;1.05;1.05;;;29.50;53.50;;;;;;5033410;28;20703;-43
2021/09/05 13:14:04;;;;;;;4.75;0.63;;;29.50;53.50;;;;;;5032837;28;20041;-43
2021/09/05 13:16:33;;;;;;;2.17;1.45;;;29.50;53.50;;;;;;5033182;28;20084;-40